<?xml version="1.0" encoding="UTF-8" standalone="no" ?>
<gpx version="1.1" creator="Visorando" xmlns:xsi="http://www.w3.org/2001/XMLSchema-instance" xmlns="http://www.topografix.com/GPX/1/1" xsi:schemaLocation="http://www.topografix.com/GPX/1/1 http://www.topografix.com/GPX/1/1/gpx.xsd">
<metadata><name>Randonnée du 07/06/2021 à 11:46</name><link href=""><text></text></link></metadata><trk><name>Randonnée du 07/06/2021 à 11:46</name><trkseg><trkpt lat="47.925474" lon="6.661049"><ele>426</ele><time>2021-09-01T15:09:19+02:00</time></trkpt><trkpt lat="47.925599" lon="6.661606"><ele>427</ele><time>2021-09-01T15:09:24+02:00</time></trkpt><trkpt lat="47.926221" lon="6.660631"><ele>424</ele><time>2021-09-01T15:09:29+02:00</time></trkpt><trkpt lat="47.926844" lon="6.659887"><ele>423</ele><time>2021-09-01T15:09:34+02:00</time></trkpt><trkpt lat="47.927466" lon="6.660677"><ele>425</ele><time>2021-09-01T15:09:39+02:00</time></trkpt><trkpt lat="47.928244" lon="6.660073"><ele>425</ele><time>2021-09-01T15:09:44+02:00</time></trkpt><trkpt lat="47.929583" lon="6.658401"><ele>426</ele><time>2021-09-01T15:09:49+02:00</time></trkpt><trkpt lat="47.93033" lon="6.657426"><ele>426</ele><time>2021-09-01T15:09:54+02:00</time></trkpt><trkpt lat="47.93089" lon="6.656729"><ele>425</ele><time>2021-09-01T15:09:59+02:00</time></trkpt><trkpt lat="47.93145" lon="6.656961"><ele>428</ele><time>2021-09-01T15:10:04+02:00</time></trkpt><trkpt lat="47.931668" lon="6.657565"><ele>430</ele><time>2021-09-01T15:10:09+02:00</time></trkpt><trkpt lat="47.932353" lon="6.656961"><ele>437</ele><time>2021-09-01T15:10:14+02:00</time></trkpt><trkpt lat="47.933784" lon="6.657379"><ele>443</ele><time>2021-09-01T15:10:19+02:00</time></trkpt><trkpt lat="47.93394" lon="6.658958"><ele>449</ele><time>2021-09-01T15:10:24+02:00</time></trkpt><trkpt lat="47.934687" lon="6.658819"><ele>466</ele><time>2021-09-01T15:10:29+02:00</time></trkpt><trkpt lat="47.934873" lon="6.658215"><ele>472</ele><time>2021-09-01T15:10:34+02:00</time></trkpt><trkpt lat="47.936999" lon="6.65812"><ele>497</ele><time>2021-09-01T15:10:39+02:00</time></trkpt><trkpt lat="47.938057" lon="6.65747"><ele>515</ele><time>2021-09-01T15:10:44+02:00</time></trkpt><trkpt lat="47.938742" lon="6.656633"><ele>510</ele><time>2021-09-01T15:10:49+02:00</time></trkpt><trkpt lat="47.939364" lon="6.656076"><ele>510</ele><time>2021-09-01T15:10:54+02:00</time></trkpt><trkpt lat="47.939551" lon="6.655147"><ele>501</ele><time>2021-09-01T15:10:59+02:00</time></trkpt><trkpt lat="47.941231" lon="6.653847"><ele>518</ele><time>2021-09-01T15:11:04+02:00</time></trkpt><trkpt lat="47.941791" lon="6.653243"><ele>520</ele><time>2021-09-01T15:11:09+02:00</time></trkpt><trkpt lat="47.942445" lon="6.653289"><ele>536</ele><time>2021-09-01T15:11:14+02:00</time></trkpt><trkpt lat="47.943285" lon="6.652825"><ele>537</ele><time>2021-09-01T15:11:19+02:00</time></trkpt><trkpt lat="47.943845" lon="6.653521"><ele>547</ele><time>2021-09-01T15:11:24+02:00</time></trkpt><trkpt lat="47.944343" lon="6.654079"><ele>560</ele><time>2021-09-01T15:11:29+02:00</time></trkpt><trkpt lat="47.944187" lon="6.653336"><ele>553</ele><time>2021-09-01T15:11:34+02:00</time></trkpt><trkpt lat="47.944156" lon="6.65236"><ele>557</ele><time>2021-09-01T15:11:39+02:00</time></trkpt><trkpt lat="47.945401" lon="6.651756"><ele>575</ele><time>2021-09-01T15:11:44+02:00</time></trkpt><trkpt lat="47.945712" lon="6.651245"><ele>583</ele><time>2021-09-01T15:11:49+02:00</time></trkpt><trkpt lat="47.945463" lon="6.652778"><ele>590</ele><time>2021-09-01T15:11:54+02:00</time></trkpt><trkpt lat="47.94593" lon="6.653614"><ele>600</ele><time>2021-09-01T15:11:59+02:00</time></trkpt><trkpt lat="47.946303" lon="6.65445"><ele>604</ele><time>2021-09-01T15:12:04+02:00</time></trkpt><trkpt lat="47.946272" lon="6.652592"><ele>618</ele><time>2021-09-01T15:12:09+02:00</time></trkpt><trkpt lat="47.946925" lon="6.651803"><ele>627</ele><time>2021-09-01T15:12:14+02:00</time></trkpt><trkpt lat="47.94733" lon="6.651013"><ele>637</ele><time>2021-09-01T15:12:19+02:00</time></trkpt><trkpt lat="47.947361" lon="6.649434"><ele>645</ele><time>2021-09-01T15:12:24+02:00</time></trkpt><trkpt lat="47.947578" lon="6.648087"><ele>648</ele><time>2021-09-01T15:12:29+02:00</time></trkpt><trkpt lat="47.947921" lon="6.650224"><ele>672</ele><time>2021-09-01T15:12:34+02:00</time></trkpt><trkpt lat="47.948294" lon="6.65171"><ele>688</ele><time>2021-09-01T15:12:39+02:00</time></trkpt><trkpt lat="47.948014" lon="6.653289"><ele>695</ele><time>2021-09-01T15:12:44+02:00</time></trkpt><trkpt lat="47.948418" lon="6.654776"><ele>710</ele><time>2021-09-01T15:12:49+02:00</time></trkpt><trkpt lat="47.948481" lon="6.656262"><ele>726</ele><time>2021-09-01T15:12:54+02:00</time></trkpt><trkpt lat="47.948667" lon="6.657098"><ele>727</ele><time>2021-09-01T15:12:59+02:00</time></trkpt><trkpt lat="47.949756" lon="6.658213"><ele>752</ele><time>2021-09-01T15:13:04+02:00</time></trkpt><trkpt lat="47.948667" lon="6.660349"><ele>771</ele><time>2021-09-01T15:13:09+02:00</time></trkpt><trkpt lat="47.948512" lon="6.661093"><ele>781</ele><time>2021-09-01T15:13:14+02:00</time></trkpt><trkpt lat="47.947392" lon="6.661696"><ele>792</ele><time>2021-09-01T15:13:19+02:00</time></trkpt><trkpt lat="47.945898" lon="6.663322"><ele>809</ele><time>2021-09-01T15:13:24+02:00</time></trkpt><trkpt lat="47.946334" lon="6.664158"><ele>802</ele><time>2021-09-01T15:13:29+02:00</time></trkpt><trkpt lat="47.946614" lon="6.664762"><ele>803</ele><time>2021-09-01T15:13:34+02:00</time></trkpt><trkpt lat="47.946707" lon="6.665412"><ele>795</ele><time>2021-09-01T15:13:39+02:00</time></trkpt><trkpt lat="47.947205" lon="6.66583"><ele>799</ele><time>2021-09-01T15:13:44+02:00</time></trkpt><trkpt lat="47.947423" lon="6.667456"><ele>798</ele><time>2021-09-01T15:13:49+02:00</time></trkpt><trkpt lat="47.947112" lon="6.668106"><ele>788</ele><time>2021-09-01T15:13:54+02:00</time></trkpt><trkpt lat="47.94705" lon="6.66885"><ele>789</ele><time>2021-09-01T15:13:59+02:00</time></trkpt><trkpt lat="47.945618" lon="6.669128"><ele>781</ele><time>2021-09-01T15:14:04+02:00</time></trkpt><trkpt lat="47.944903" lon="6.669546"><ele>773</ele><time>2021-09-01T15:14:09+02:00</time></trkpt><trkpt lat="47.944498" lon="6.670197"><ele>768</ele><time>2021-09-01T15:14:14+02:00</time></trkpt><trkpt lat="47.945121" lon="6.672473"><ele>768</ele><time>2021-09-01T15:14:19+02:00</time></trkpt><trkpt lat="47.945089" lon="6.673216"><ele>771</ele><time>2021-09-01T15:14:24+02:00</time></trkpt><trkpt lat="47.943752" lon="6.67433"><ele>756</ele><time>2021-09-01T15:14:29+02:00</time></trkpt><trkpt lat="47.943098" lon="6.675817"><ele>746</ele><time>2021-09-01T15:14:34+02:00</time></trkpt><trkpt lat="47.94372" lon="6.676746"><ele>753</ele><time>2021-09-01T15:14:39+02:00</time></trkpt><trkpt lat="47.94428" lon="6.677675"><ele>747</ele><time>2021-09-01T15:14:44+02:00</time></trkpt><trkpt lat="47.944934" lon="6.678186"><ele>752</ele><time>2021-09-01T15:14:49+02:00</time></trkpt><trkpt lat="47.945121" lon="6.679347"><ele>762</ele><time>2021-09-01T15:14:54+02:00</time></trkpt><trkpt lat="47.944498" lon="6.680462"><ele>749</ele><time>2021-09-01T15:14:59+02:00</time></trkpt><trkpt lat="47.94428" lon="6.681762"><ele>750</ele><time>2021-09-01T15:15:04+02:00</time></trkpt><trkpt lat="47.944561" lon="6.683481"><ele>738</ele><time>2021-09-01T15:15:09+02:00</time></trkpt><trkpt lat="47.945992" lon="6.683853"><ele>734</ele><time>2021-09-01T15:15:14+02:00</time></trkpt><trkpt lat="47.947143" lon="6.684456"><ele>734</ele><time>2021-09-01T15:15:19+02:00</time></trkpt><trkpt lat="47.947454" lon="6.686129"><ele>724</ele><time>2021-09-01T15:15:24+02:00</time></trkpt><trkpt lat="47.94705" lon="6.687197"><ele>717</ele><time>2021-09-01T15:15:29+02:00</time></trkpt><trkpt lat="47.947423" lon="6.690216"><ele>700</ele><time>2021-09-01T15:15:34+02:00</time></trkpt><trkpt lat="47.947921" lon="6.691099"><ele>712</ele><time>2021-09-01T15:15:39+02:00</time></trkpt><trkpt lat="47.948698" lon="6.691749"><ele>720</ele><time>2021-09-01T15:15:44+02:00</time></trkpt><trkpt lat="47.949072" lon="6.692771"><ele>729</ele><time>2021-09-01T15:15:49+02:00</time></trkpt><trkpt lat="47.947796" lon="6.694025"><ele>742</ele><time>2021-09-01T15:15:54+02:00</time></trkpt><trkpt lat="47.947361" lon="6.695279"><ele>750</ele><time>2021-09-01T15:15:59+02:00</time></trkpt><trkpt lat="47.947423" lon="6.697834"><ele>771</ele><time>2021-09-01T15:16:04+02:00</time></trkpt><trkpt lat="47.947734" lon="6.700295"><ele>793</ele><time>2021-09-01T15:16:09+02:00</time></trkpt><trkpt lat="47.947734" lon="6.701735"><ele>804</ele><time>2021-09-01T15:16:14+02:00</time></trkpt><trkpt lat="47.948325" lon="6.701039"><ele>814</ele><time>2021-09-01T15:16:19+02:00</time></trkpt><trkpt lat="47.948138" lon="6.703129"><ele>826</ele><time>2021-09-01T15:16:24+02:00</time></trkpt><trkpt lat="47.947293" lon="6.704344"><ele>832</ele><time>2021-09-01T15:16:29+02:00</time></trkpt><trkpt lat="47.946671" lon="6.704762"><ele>836</ele><time>2021-09-01T15:16:34+02:00</time></trkpt><trkpt lat="47.945551" lon="6.706016"><ele>835</ele><time>2021-09-01T15:16:39+02:00</time></trkpt><trkpt lat="47.944804" lon="6.706945"><ele>829</ele><time>2021-09-01T15:16:44+02:00</time></trkpt><trkpt lat="47.943995" lon="6.706155"><ele>830</ele><time>2021-09-01T15:16:49+02:00</time></trkpt><trkpt lat="47.943653" lon="6.703833"><ele>817</ele><time>2021-09-01T15:16:54+02:00</time></trkpt><trkpt lat="47.943186" lon="6.702439"><ele>820</ele><time>2021-09-01T15:16:59+02:00</time></trkpt><trkpt lat="47.942782" lon="6.700024"><ele>813</ele><time>2021-09-01T15:17:04+02:00</time></trkpt><trkpt lat="47.942315" lon="6.698537"><ele>804</ele><time>2021-09-01T15:17:09+02:00</time></trkpt><trkpt lat="47.941195" lon="6.698305"><ele>794</ele><time>2021-09-01T15:17:14+02:00</time></trkpt><trkpt lat="47.94051" lon="6.699002"><ele>801</ele><time>2021-09-01T15:17:19+02:00</time></trkpt><trkpt lat="47.939701" lon="6.698723"><ele>804</ele><time>2021-09-01T15:17:24+02:00</time></trkpt><trkpt lat="47.939079" lon="6.698398"><ele>808</ele><time>2021-09-01T15:17:29+02:00</time></trkpt><trkpt lat="47.938146" lon="6.697237"><ele>808</ele><time>2021-09-01T15:17:34+02:00</time></trkpt><trkpt lat="47.937834" lon="6.698816"><ele>804</ele><time>2021-09-01T15:17:39+02:00</time></trkpt><trkpt lat="47.937274" lon="6.699234"><ele>794</ele><time>2021-09-01T15:17:44+02:00</time></trkpt><trkpt lat="47.936839" lon="6.698445"><ele>795</ele><time>2021-09-01T15:17:49+02:00</time></trkpt><trkpt lat="47.935749" lon="6.697376"><ele>795</ele><time>2021-09-01T15:17:54+02:00</time></trkpt><trkpt lat="47.934785" lon="6.696912"><ele>791</ele><time>2021-09-01T15:17:59+02:00</time></trkpt><trkpt lat="47.934318" lon="6.69733"><ele>798</ele><time>2021-09-01T15:18:04+02:00</time></trkpt><trkpt lat="47.933384" lon="6.697098"><ele>785</ele><time>2021-09-01T15:18:09+02:00</time></trkpt><trkpt lat="47.934567" lon="6.696587"><ele>784</ele><time>2021-09-01T15:18:14+02:00</time></trkpt><trkpt lat="47.935189" lon="6.696122"><ele>771</ele><time>2021-09-01T15:18:19+02:00</time></trkpt><trkpt lat="47.93659" lon="6.695379"><ele>759</ele><time>2021-09-01T15:18:24+02:00</time></trkpt><trkpt lat="47.936839" lon="6.69445"><ele>750</ele><time>2021-09-01T15:18:29+02:00</time></trkpt><trkpt lat="47.937648" lon="6.693335"><ele>737</ele><time>2021-09-01T15:18:34+02:00</time></trkpt><trkpt lat="47.938052" lon="6.693149"><ele>733</ele><time>2021-09-01T15:18:39+02:00</time></trkpt><trkpt lat="47.938457" lon="6.692406"><ele>720</ele><time>2021-09-01T15:18:44+02:00</time></trkpt><trkpt lat="47.937959" lon="6.692035"><ele>714</ele><time>2021-09-01T15:18:49+02:00</time></trkpt><trkpt lat="47.938021" lon="6.690177"><ele>693</ele><time>2021-09-01T15:18:54+02:00</time></trkpt><trkpt lat="47.938519" lon="6.690084"><ele>690</ele><time>2021-09-01T15:18:59+02:00</time></trkpt><trkpt lat="47.937928" lon="6.689015"><ele>677</ele><time>2021-09-01T15:19:04+02:00</time></trkpt><trkpt lat="47.938146" lon="6.688272"><ele>674</ele><time>2021-09-01T15:19:09+02:00</time></trkpt><trkpt lat="47.937834" lon="6.687297"><ele>664</ele><time>2021-09-01T15:19:14+02:00</time></trkpt><trkpt lat="47.936776" lon="6.687575"><ele>660</ele><time>2021-09-01T15:19:19+02:00</time></trkpt><trkpt lat="47.936465" lon="6.686693"><ele>650</ele><time>2021-09-01T15:19:24+02:00</time></trkpt><trkpt lat="47.935936" lon="6.684974"><ele>656</ele><time>2021-09-01T15:19:29+02:00</time></trkpt><trkpt lat="47.935469" lon="6.682791"><ele>650</ele><time>2021-09-01T15:19:34+02:00</time></trkpt><trkpt lat="47.935096" lon="6.682002"><ele>647</ele><time>2021-09-01T15:19:39+02:00</time></trkpt><trkpt lat="47.934723" lon="6.681073"><ele>637</ele><time>2021-09-01T15:19:44+02:00</time></trkpt><trkpt lat="47.934225" lon="6.680144"><ele>626</ele><time>2021-09-01T15:19:49+02:00</time></trkpt><trkpt lat="47.933571" lon="6.678007"><ele>612</ele><time>2021-09-01T15:19:54+02:00</time></trkpt><trkpt lat="47.933353" lon="6.676892"><ele>602</ele><time>2021-09-01T15:19:59+02:00</time></trkpt><trkpt lat="47.932855" lon="6.676056"><ele>597</ele><time>2021-09-01T15:20:04+02:00</time></trkpt><trkpt lat="47.932544" lon="6.675081"><ele>596</ele><time>2021-09-01T15:20:09+02:00</time></trkpt><trkpt lat="47.9327" lon="6.67378"><ele>581</ele><time>2021-09-01T15:20:14+02:00</time></trkpt><trkpt lat="47.932326" lon="6.672247"><ele>575</ele><time>2021-09-01T15:20:19+02:00</time></trkpt><trkpt lat="47.932918" lon="6.672387"><ele>559</ele><time>2021-09-01T15:20:24+02:00</time></trkpt><trkpt lat="47.933291" lon="6.673409"><ele>558</ele><time>2021-09-01T15:20:29+02:00</time></trkpt><trkpt lat="47.933571" lon="6.671829"><ele>535</ele><time>2021-09-01T15:20:34+02:00</time></trkpt><trkpt lat="47.933696" lon="6.670343"><ele>520</ele><time>2021-09-01T15:20:39+02:00</time></trkpt><trkpt lat="47.933696" lon="6.669182"><ele>513</ele><time>2021-09-01T15:20:44+02:00</time></trkpt><trkpt lat="47.93326" lon="6.667881"><ele>504</ele><time>2021-09-01T15:20:49+02:00</time></trkpt><trkpt lat="47.9327" lon="6.666534"><ele>488</ele><time>2021-09-01T15:20:54+02:00</time></trkpt><trkpt lat="47.930978" lon="6.665495"><ele>487</ele><time>2021-09-01T15:20:59+02:00</time></trkpt><trkpt lat="47.930387" lon="6.664566"><ele>476</ele><time>2021-09-01T15:21:04+02:00</time></trkpt><trkpt lat="47.929578" lon="6.664613"><ele>471</ele><time>2021-09-01T15:21:09+02:00</time></trkpt><trkpt lat="47.928644" lon="6.664752"><ele>473</ele><time>2021-09-01T15:21:14+02:00</time></trkpt><trkpt lat="47.929142" lon="6.664287"><ele>462</ele><time>2021-09-01T15:21:19+02:00</time></trkpt><trkpt lat="47.928706" lon="6.663684"><ele>455</ele><time>2021-09-01T15:21:24+02:00</time></trkpt><trkpt lat="47.928115" lon="6.663126"><ele>447</ele><time>2021-09-01T15:21:29+02:00</time></trkpt><trkpt lat="47.927274" lon="6.663405"><ele>438</ele><time>2021-09-01T15:21:34+02:00</time></trkpt><trkpt lat="47.926963" lon="6.662894"><ele>430</ele><time>2021-09-01T15:21:39+02:00</time></trkpt><trkpt lat="47.926745" lon="6.663498"><ele>434</ele><time>2021-09-01T15:21:44+02:00</time></trkpt><trkpt lat="47.926154" lon="6.662476"><ele>428</ele><time>2021-09-01T15:21:49+02:00</time></trkpt><trkpt lat="47.925532" lon="6.661408"><ele>426</ele><time>2021-09-01T15:21:54+02:00</time></trkpt><trkpt lat="47.925407" lon="6.660711"><ele>425</ele><time>2021-09-01T15:21:59+02:00</time></trkpt></trkseg></trk></gpx>